sensor_id;sensor_type;location;lat;lon;timestamp;pressure;altitude;pressure_sealevel;temperature;humidity
27334;BME280;14817;57.104;-2.094;2024-03-07T00:00:59;101352.31;;;5.67;100.00
27334;BME280;14817;57.104;-2.094;2024-03-07T00:03:27;101348.72;;;5.68;100.00
27334;BME280;14817;57.104;-2.094;2024-03-07T00:05:53;101351.69;;;5.63;100.00
27334;BME280;14817;57.104;-2.094;2024-03-07T00:08:20;101354.34;;;5.63;100.00
27334;BME280;14817;57.104;-2.094;2024-03-07T00:10:48;101349.88;;;5.64;100.00
27334;BME280;14817;57.104;-2.094;2024-03-07T00:13:15;101351.78;;;5.62;100.00
27334;BME280;14817;57.104;-2.094;2024-03-07T00:15:42;101358.78;;;5.63;100.00
27334;BME280;14817;57.104;-2.094;2024-03-07T00:18:09;101357.63;;;5.67;100.00
27334;BME280;14817;57.104;-2.094;2024-03-07T00:20:37;101359.34;;;5.68;100.00
27334;BME280;14817;57.104;-2.094;2024-03-07T00:23:04;101363.38;;;5.73;100.00
27334;BME280;14817;57.104;-2.094;2024-03-07T00:25:31;101361.41;;;5.77;100.00
27334;BME280;14817;57.104;-2.094;2024-03-07T00:28:01;101350.66;;;5.79;100.00
27334;BME280;14817;57.104;-2.094;2024-03-07T00:30:30;101355.59;;;5.85;100.00
27334;BME280;14817;57.104;-2.094;2024-03-07T00:32:57;101357.59;;;5.81;100.00
27334;BME280;14817;57.104;-2.094;2024-03-07T00:35:24;101361.75;;;5.85;100.00
27334;BME280;14817;57.104;-2.094;2024-03-07T00:37:51;101362.81;;;5.83;100.00
27334;BME280;14817;57.104;-2.094;2024-03-07T00:40:21;101360.25;;;5.81;100.00
27334;BME280;14817;57.104;-2.094;2024-03-07T00:42:47;101357.13;;;5.75;100.00
27334;BME280;14817;57.104;-2.094;2024-03-07T00:45:15;101363.38;;;5.73;100.00
27334;BME280;14817;57.104;-2.094;2024-03-07T00:47:41;101363.03;;;5.65;100.00
27334;BME280;14817;57.104;-2.094;2024-03-07T00:50:09;101356.34;;;5.60;100.00
27334;BME280;14817;57.104;-2.094;2024-03-07T00:52:37;101358.22;;;5.58;100.00
27334;BME280;14817;57.104;-2.094;2024-03-07T00:55:05;101368.19;;;5.54;100.00
27334;BME280;14817;57.104;-2.094;2024-03-07T00:57:37;101368.19;;;5.54;100.00
27334;BME280;14817;57.104;-2.094;2024-03-07T01:00:07;101374.56;;;5.51;100.00
27334;BME280;14817;57.104;-2.094;2024-03-07T01:02:41;101367.25;;;5.55;100.00
27334;BME280;14817;57.104;-2.094;2024-03-07T01:05:10;101381.09;;;5.60;100.00
27334;BME280;14817;57.104;-2.094;2024-03-07T01:07:40;101380.16;;;5.61;100.00
27334;BME280;14817;57.104;-2.094;2024-03-07T01:10:08;101375.47;;;5.65;100.00
27334;BME280;14817;57.104;-2.094;2024-03-07T01:12:37;101378.03;;;5.66;100.00
27334;BME280;14817;57.104;-2.094;2024-03-07T01:15:04;101386.09;;;5.65;100.00
27334;BME280;14817;57.104;-2.094;2024-03-07T01:17:32;101384.41;;;5.64;100.00
27334;BME280;14817;57.104;-2.094;2024-03-07T01:19:59;101385.03;;;5.67;100.00
27334;BME280;14817;57.104;-2.094;2024-03-07T01:22:26;101385.53;;;5.74;100.00
27334;BME280;14817;57.104;-2.094;2024-03-07T01:24:53;101390.72;;;5.76;100.00
27334;BME280;14817;57.104;-2.094;2024-03-07T01:27:20;101387.22;;;5.75;100.00
27334;BME280;14817;57.104;-2.094;2024-03-07T01:29:46;101386.06;;;5.79;100.00
27334;BME280;14817;57.104;-2.094;2024-03-07T01:32:18;101378.84;;;5.81;100.00
27334;BME280;14817;57.104;-2.094;2024-03-07T01:34:45;101376.69;;;5.73;100.00
27334;BME280;14817;57.104;-2.094;2024-03-07T01:37:12;101379.91;;;5.79;100.00
27334;BME280;14817;57.104;-2.094;2024-03-07T01:39:39;101379.25;;;5.75;100.00
27334;BME280;14817;57.104;-2.094;2024-03-07T01:42:06;101378.50;;;5.73;100.00
27334;BME280;14817;57.104;-2.094;2024-03-07T01:44:37;101378.09;;;5.79;100.00
27334;BME280;14817;57.104;-2.094;2024-03-07T01:47:07;101375.00;;;5.72;100.00
27334;BME280;14817;57.104;-2.094;2024-03-07T01:49:34;101371.66;;;5.69;100.00
27334;BME280;14817;57.104;-2.094;2024-03-07T01:52:01;101373.56;;;5.67;100.00
27334;BME280;14817;57.104;-2.094;2024-03-07T01:54:29;101378.19;;;5.78;100.00
27334;BME280;14817;57.104;-2.094;2024-03-07T01:56:56;101376.28;;;5.80;100.00
27334;BME280;14817;57.104;-2.094;2024-03-07T01:59:23;101378.63;;;5.84;100.00
27334;BME280;14817;57.104;-2.094;2024-03-07T02:01:51;101373.88;;;5.89;100.00
27334;BME280;14817;57.104;-2.094;2024-03-07T02:04:18;101368.44;;;5.91;100.00
27334;BME280;14817;57.104;-2.094;2024-03-07T02:06:50;101368.56;;;5.89;100.00
27334;BME280;14817;57.104;-2.094;2024-03-07T02:09:16;101368.25;;;5.94;100.00
27334;BME280;14817;57.104;-2.094;2024-03-07T02:11:44;101378.84;;;5.96;100.00
27334;BME280;14817;57.104;-2.094;2024-03-07T02:14:10;101378.44;;;6.02;100.00
27334;BME280;14817;57.104;-2.094;2024-03-07T02:16:38;101371.38;;;6.01;100.00
27334;BME280;14817;57.104;-2.094;2024-03-07T02:19:07;101378.44;;;6.02;100.00
27334;BME280;14817;57.104;-2.094;2024-03-07T02:21:34;101373.84;;;6.04;100.00
27334;BME280;14817;57.104;-2.094;2024-03-07T02:24:00;101372.06;;;6.04;100.00
27334;BME280;14817;57.104;-2.094;2024-03-07T02:26:27;101367.56;;;6.05;100.00
27334;BME280;14817;57.104;-2.094;2024-03-07T02:28:54;101369.16;;;6.07;100.00
27334;BME280;14817;57.104;-2.094;2024-03-07T02:31:21;101368.22;;;6.08;100.00
27334;BME280;14817;57.104;-2.094;2024-03-07T02:34:01;101368.22;;;6.08;100.00
27334;BME280;14817;57.104;-2.094;2024-03-07T02:36:30;101360.25;;;6.08;100.00
27334;BME280;14817;57.104;-2.094;2024-03-07T02:38:57;101367.16;;;6.11;100.00
27334;BME280;14817;57.104;-2.094;2024-03-07T02:41:24;101368.09;;;6.10;100.00
27334;BME280;14817;57.104;-2.094;2024-03-07T02:43:52;101373.44;;;6.10;100.00
27334;BME280;14817;57.104;-2.094;2024-03-07T02:46:21;101368.84;;;6.12;100.00
27334;BME280;14817;57.104;-2.094;2024-03-07T02:48:47;101369.63;;;6.14;100.00
27334;BME280;14817;57.104;-2.094;2024-03-07T02:51:15;101372.94;;;6.18;100.00
27334;BME280;14817;57.104;-2.094;2024-03-07T02:53:42;101373.03;;;6.16;100.00
27334;BME280;14817;57.104;-2.094;2024-03-07T02:56:09;101366.84;;;6.16;100.00
27334;BME280;14817;57.104;-2.094;2024-03-07T02:58:36;101367.69;;;6.16;100.00
27334;BME280;14817;57.104;-2.094;2024-03-07T03:01:03;101366.00;;;6.15;100.00
27334;BME280;14817;57.104;-2.094;2024-03-07T03:03:30;101369.00;;;6.23;100.00
27334;BME280;14817;57.104;-2.094;2024-03-07T03:05:58;101366.75;;;6.17;100.00
27334;BME280;14817;57.104;-2.094;2024-03-07T03:08:26;101365.16;;;6.15;100.00
27334;BME280;14817;57.104;-2.094;2024-03-07T03:10:56;101365.78;;;6.18;100.00
27334;BME280;14817;57.104;-2.094;2024-03-07T03:13:24;101366.75;;;6.17;100.00
27334;BME280;14817;57.104;-2.094;2024-03-07T03:15:51;101365.03;;;6.16;100.00
27334;BME280;14817;57.104;-2.094;2024-03-07T03:18:18;101365.91;;;6.17;100.00
27334;BME280;14817;57.104;-2.094;2024-03-07T03:20:46;101372.59;;;6.09;100.00
27334;BME280;14817;57.104;-2.094;2024-03-07T03:23:14;101361.44;;;6.17;100.00
27334;BME280;14817;57.104;-2.094;2024-03-07T03:25:47;101364.84;;;6.19;100.00
27334;BME280;14817;57.104;-2.094;2024-03-07T03:28:16;101369.63;;;6.14;100.00
27334;BME280;14817;57.104;-2.094;2024-03-07T03:30:46;101359.53;;;6.19;100.00
27334;BME280;14817;57.104;-2.094;2024-03-07T03:33:13;101364.84;;;6.19;100.00
27334;BME280;14817;57.104;-2.094;2024-03-07T03:35:42;101359.53;;;6.19;100.00
27334;BME280;14817;57.104;-2.094;2024-03-07T03:38:08;101345.06;;;6.23;100.00
27334;BME280;14817;57.104;-2.094;2024-03-07T03:40:36;101358.78;;;6.17;100.00
27334;BME280;14817;57.104;-2.094;2024-03-07T03:43:02;101359.41;;;6.21;100.00
27334;BME280;14817;57.104;-2.094;2024-03-07T03:45:30;101359.31;;;6.22;100.00
27334;BME280;14817;57.104;-2.094;2024-03-07T03:47:58;101359.72;;;6.16;100.00
27334;BME280;14817;57.104;-2.094;2024-03-07T03:50:26;101369.19;;;6.20;100.00
27334;BME280;14817;57.104;-2.094;2024-03-07T03:52:53;101372.53;;;6.24;100.00
27334;BME280;14817;57.104;-2.094;2024-03-07T03:55:20;101365.38;;;6.24;100.00
27334;BME280;14817;57.104;-2.094;2024-03-07T03:57:47;101363.13;;;6.18;100.00
27334;BME280;14817;57.104;-2.094;2024-03-07T04:00:15;101370.78;;;6.23;100.00
27334;BME280;14817;57.104;-2.094;2024-03-07T04:02:45;101369.19;;;6.20;100.00
27334;BME280;14817;57.104;-2.094;2024-03-07T04:05:17;101373.69;;;6.20;100.00
27334;BME280;14817;57.104;-2.094;2024-03-07T04:07:46;101369.84;;;6.24;100.00
27334;BME280;14817;57.104;-2.094;2024-03-07T04:10:15;101370.91;;;6.21;100.00
27334;BME280;14817;57.104;-2.094;2024-03-07T04:12:43;101381.34;;;6.24;100.00
27334;BME280;14817;57.104;-2.094;2024-03-07T04:15:12;101376.78;;;6.26;100.00
27334;BME280;14817;57.104;-2.094;2024-03-07T04:17:40;101379.75;;;6.22;100.00
27334;BME280;14817;57.104;-2.094;2024-03-07T04:20:07;101371.53;;;6.25;100.00
27334;BME280;14817;57.104;-2.094;2024-03-07T04:22:37;101378.50;;;6.27;100.00
27334;BME280;14817;57.104;-2.094;2024-03-07T04:25:07;101371.25;;;6.29;100.00
27334;BME280;14817;57.104;-2.094;2024-03-07T04:27:36;101374.09;;;6.26;100.00
27334;BME280;14817;57.104;-2.094;2024-03-07T04:30:07;101373.91;;;6.29;100.00
27334;BME280;14817;57.104;-2.094;2024-03-07T04:32:37;101373.16;;;6.27;100.00
27334;BME280;14817;57.104;-2.094;2024-03-07T04:35:05;101370.19;;;6.32;100.00
27334;BME280;14817;57.104;-2.094;2024-03-07T04:37:35;101378.59;;;6.26;100.00
27334;BME280;14817;57.104;-2.094;2024-03-07T04:40:04;101376.25;;;6.21;100.00
27334;BME280;14817;57.104;-2.094;2024-03-07T04:42:31;101387.22;;;6.29;100.00
27334;BME280;14817;57.104;-2.094;2024-03-07T04:44:58;101387.81;;;6.20;100.00
27334;BME280;14817;57.104;-2.094;2024-03-07T04:47:25;101388.56;;;6.22;100.00
27334;BME280;14817;57.104;-2.094;2024-03-07T04:49:52;101395.19;;;6.17;100.00
27334;BME280;14817;57.104;-2.094;2024-03-07T04:52:18;101388.78;;;6.19;100.00
27334;BME280;14817;57.104;-2.094;2024-03-07T04:54:45;101398.47;;;6.20;100.00
27334;BME280;14817;57.104;-2.094;2024-03-07T04:57:12;101385.91;;;6.22;100.00
27334;BME280;14817;57.104;-2.094;2024-03-07T04:59:39;101386.13;;;6.19;100.00
27334;BME280;14817;57.104;-2.094;2024-03-07T05:02:07;101391.03;;;6.25;100.00
27334;BME280;14817;57.104;-2.094;2024-03-07T05:04:35;101402.72;;;6.23;100.00
27334;BME280;14817;57.104;-2.094;2024-03-07T05:07:02;101392.06;;;6.23;100.00
27334;BME280;14817;57.104;-2.094;2024-03-07T05:09:29;101398.28;;;6.23;100.00
27334;BME280;14817;57.104;-2.094;2024-03-07T05:11:56;101408.47;;;6.17;100.00
27334;BME280;14817;57.104;-2.094;2024-03-07T05:14:24;101405.50;;;6.21;100.00
27334;BME280;14817;57.104;-2.094;2024-03-07T05:16:54;101405.59;;;6.20;100.00
27334;BME280;14817;57.104;-2.094;2024-03-07T05:19:35;101403.78;;;6.20;100.00
27334;BME280;14817;57.104;-2.094;2024-03-07T05:22:05;101410.81;;;6.21;100.00
27334;BME280;14817;57.104;-2.094;2024-03-07T05:24:32;101407.94;;;6.24;100.00
27334;BME280;14817;57.104;-2.094;2024-03-07T05:27:00;101410.91;;;6.20;100.00
27334;BME280;14817;57.104;-2.094;2024-03-07T05:29:28;101409.00;;;6.22;100.00
27334;BME280;14817;57.104;-2.094;2024-03-07T05:31:55;101406.66;;;6.17;100.00
27334;BME280;14817;57.104;-2.094;2024-03-07T05:34:21;101415.06;;;6.24;100.00
27334;BME280;14817;57.104;-2.094;2024-03-07T05:36:50;101413.56;;;6.20;100.00
27334;BME280;14817;57.104;-2.094;2024-03-07T05:39:18;101415.91;;;6.24;100.00
27334;BME280;14817;57.104;-2.094;2024-03-07T05:41:45;101407.09;;;6.24;100.00
27334;BME280;14817;57.104;-2.094;2024-03-07T05:44:13;101415.06;;;6.24;100.00
27334;BME280;14817;57.104;-2.094;2024-03-07T05:46:42;101418.28;;;6.29;100.00
27334;BME280;14817;57.104;-2.094;2024-03-07T05:49:16;101416.16;;;6.34;100.00
27334;BME280;14817;57.104;-2.094;2024-03-07T05:51:46;101417.41;;;6.28;100.00
27334;BME280;14817;57.104;-2.094;2024-03-07T05:54:14;101422.00;;;6.26;100.00
27334;BME280;14817;57.104;-2.094;2024-03-07T05:56:43;101419.16;;;6.29;100.00
27334;BME280;14817;57.104;-2.094;2024-03-07T05:59:13;101416.34;;;6.31;100.00
27334;BME280;14817;57.104;-2.094;2024-03-07T06:01:40;101412.75;;;6.32;100.00
27334;BME280;14817;57.104;-2.094;2024-03-07T06:04:07;101420.63;;;6.33;100.00
27334;BME280;14817;57.104;-2.094;2024-03-07T06:06:35;101419.78;;;6.33;100.00
27334;BME280;14817;57.104;-2.094;2024-03-07T06:09:09;101416.78;;;6.38;100.00
27334;BME280;14817;57.104;-2.094;2024-03-07T06:11:39;101417.78;;;6.37;100.00
27334;BME280;14817;57.104;-2.094;2024-03-07T06:14:10;101422.34;;;6.34;100.00
27334;BME280;14817;57.104;-2.094;2024-03-07T06:16:40;101428.50;;;6.35;100.00
27334;BME280;14817;57.104;-2.094;2024-03-07T06:19:08;101429.16;;;6.39;100.00
27334;BME280;14817;57.104;-2.094;2024-03-07T06:21:39;101435.31;;;6.39;100.00
27334;BME280;14817;57.104;-2.094;2024-03-07T06:24:06;101426.81;;;6.34;100.00
27334;BME280;14817;57.104;-2.094;2024-03-07T06:26:36;101434.56;;;6.37;100.00
27334;BME280;14817;57.104;-2.094;2024-03-07T06:29:24;101428.31;;;6.38;100.00
27334;BME280;14817;57.104;-2.094;2024-03-07T06:31:50;101434.25;;;6.42;100.00
27334;BME280;14817;57.104;-2.094;2024-03-07T06:34:20;101432.56;;;6.41;100.00
27334;BME280;14817;57.104;-2.094;2024-03-07T06:36:47;101432.75;;;6.38;100.00
27334;BME280;14817;57.104;-2.094;2024-03-07T06:39:14;101435.97;;;6.43;100.00
27334;BME280;14817;57.104;-2.094;2024-03-07T06:41:42;101439.41;;;6.45;100.00
27334;BME280;14817;57.104;-2.094;2024-03-07T06:44:09;101435.75;;;6.46;100.00
27334;BME280;14817;57.104;-2.094;2024-03-07T06:46:37;101431.94;;;6.50;100.00
27334;BME280;14817;57.104;-2.094;2024-03-07T06:49:03;101427.88;;;6.44;100.00
27334;BME280;14817;57.104;-2.094;2024-03-07T06:51:35;101425.34;;;6.43;100.00
27334;BME280;14817;57.104;-2.094;2024-03-07T06:54:03;101426.84;;;6.47;100.00
27334;BME280;14817;57.104;-2.094;2024-03-07T06:56:29;101431.94;;;6.50;100.00
27334;BME280;14817;57.104;-2.094;2024-03-07T06:58:57;101439.81;;;6.51;100.00
27334;BME280;14817;57.104;-2.094;2024-03-07T07:01:24;101436.09;;;6.54;100.00
27334;BME280;14817;57.104;-2.094;2024-03-07T07:03:51;101422.78;;;6.54;100.00
27334;BME280;14817;57.104;-2.094;2024-03-07T07:06:18;101434.19;;;6.56;100.00
27334;BME280;14817;57.104;-2.094;2024-03-07T07:08:45;101432.59;;;6.53;100.00
27334;BME280;14817;57.104;-2.094;2024-03-07T07:11:12;101431.84;;;6.51;100.00
27334;BME280;14817;57.104;-2.094;2024-03-07T07:13:39;101432.59;;;6.53;100.00
27334;BME280;14817;57.104;-2.094;2024-03-07T07:16:08;101438.53;;;6.57;100.00
27334;BME280;14817;57.104;-2.094;2024-03-07T07:18:36;101438.66;;;6.56;100.00
27334;BME280;14817;57.104;-2.094;2024-03-07T07:21:05;101433.13;;;6.59;100.00
27334;BME280;14817;57.104;-2.094;2024-03-07T07:23:33;101442.09;;;6.58;100.00
27334;BME280;14817;57.104;-2.094;2024-03-07T07:25:59;101438.75;;;6.54;100.00
27334;BME280;14817;57.104;-2.094;2024-03-07T07:28:26;101443.88;;;6.57;100.00
27334;BME280;14817;57.104;-2.094;2024-03-07T07:30:53;101438.44;;;6.59;100.00
27334;BME280;14817;57.104;-2.094;2024-03-07T07:33:20;101439.41;;;6.58;100.00
27334;BME280;14817;57.104;-2.094;2024-03-07T07:35:47;101449.19;;;6.57;100.00
27334;BME280;14817;57.104;-2.094;2024-03-07T07:38:14;101452.59;;;6.59;100.00
27334;BME280;14817;57.104;-2.094;2024-03-07T07:40:42;101447.09;;;6.62;100.00
27334;BME280;14817;57.104;-2.094;2024-03-07T07:43:11;101448.91;;;6.62;100.00
27334;BME280;14817;57.104;-2.094;2024-03-07T07:45:47;101450.50;;;6.64;100.00
27334;BME280;14817;57.104;-2.094;2024-03-07T07:48:14;101446.88;;;6.65;100.00
27334;BME280;14817;57.104;-2.094;2024-03-07T07:50:43;101452.41;;;6.62;100.00
27334;BME280;14817;57.104;-2.094;2024-03-07T07:53:10;101450.50;;;6.64;100.00
27334;BME280;14817;57.104;-2.094;2024-03-07T07:55:37;101450.28;;;6.67;100.00
27334;BME280;14817;57.104;-2.094;2024-03-07T07:58:05;101458.25;;;6.67;100.00
27334;BME280;14817;57.104;-2.094;2024-03-07T08:00:32;101453.81;;;6.68;100.00
27334;BME280;14817;57.104;-2.094;2024-03-07T08:05:28;101444.53;;;6.73;100.00
27334;BME280;14817;57.104;-2.094;2024-03-07T08:07:57;101445.38;;;6.74;100.00
27334;BME280;14817;57.104;-2.094;2024-03-07T08:10:26;101449.44;;;6.80;100.00
27334;BME280;14817;57.104;-2.094;2024-03-07T08:12:56;101441.56;;;6.91;100.00
27334;BME280;14817;57.104;-2.094;2024-03-07T08:15:24;101444.88;;;6.82;100.00
27334;BME280;14817;57.104;-2.094;2024-03-07T08:17:52;101439.66;;;6.80;100.00
27334;BME280;14817;57.104;-2.094;2024-03-07T08:20:22;101448.50;;;6.81;100.00
27334;BME280;14817;57.104;-2.094;2024-03-07T08:22:50;101454.25;;;6.74;100.00
27334;BME280;14817;57.104;-2.094;2024-03-07T08:25:25;101438.56;;;6.83;100.00
27334;BME280;14817;57.104;-2.094;2024-03-07T08:27:53;101437.63;;;6.84;100.00
27334;BME280;14817;57.104;-2.094;2024-03-07T08:30:22;101443.47;;;6.89;100.00
27334;BME280;14817;57.104;-2.094;2024-03-07T08:32:53;101441.88;;;6.73;100.00
27334;BME280;14817;57.104;-2.094;2024-03-07T08:35:22;101445.09;;;6.79;100.00
27334;BME280;14817;57.104;-2.094;2024-03-07T08:37:51;101444.88;;;6.82;100.00
27334;BME280;14817;57.104;-2.094;2024-03-07T08:40:24;101444.13;;;6.80;100.00
27334;BME280;14817;57.104;-2.094;2024-03-07T08:42:55;101446.56;;;6.83;100.00
27334;BME280;14817;57.104;-2.094;2024-03-07T08:45:24;101445.72;;;6.82;100.00
27334;BME280;14817;57.104;-2.094;2024-03-07T08:47:53;101450.44;;;6.91;100.00
27334;BME280;14817;57.104;-2.094;2024-03-07T08:50:27;101445.53;;;6.98;100.00
27334;BME280;14817;57.104;-2.094;2024-03-07T08:52:55;101441.88;;;6.99;100.00
27334;BME280;14817;57.104;-2.094;2024-03-07T08:55:23;101436.78;;;6.96;100.00
27334;BME280;14817;57.104;-2.094;2024-03-07T08:57:52;101445.31;;;7.01;100.00
27334;BME280;14817;57.104;-2.094;2024-03-07T09:00:19;101434.31;;;6.93;100.00
27334;BME280;14817;57.104;-2.094;2024-03-07T09:02:57;101441.13;;;6.97;100.00
27334;BME280;14817;57.104;-2.094;2024-03-07T09:05:27;101451.78;;;6.97;100.00
27334;BME280;14817;57.104;-2.094;2024-03-07T09:07:55;101446.69;;;6.94;100.00
27334;BME280;14817;57.104;-2.094;2024-03-07T09:10:22;101446.88;;;6.91;100.00
27334;BME280;14817;57.104;-2.094;2024-03-07T09:12:52;101450.28;;;6.93;100.00
27334;BME280;14817;57.104;-2.094;2024-03-07T09:15:23;101453.50;;;6.98;100.00
27334;BME280;14817;57.104;-2.094;2024-03-07T09:17:51;101444.22;;;7.04;100.00
27334;BME280;14817;57.104;-2.094;2024-03-07T09:20:19;101444.34;;;7.02;100.00
27334;BME280;14817;57.104;-2.094;2024-03-07T09:22:47;101456.78;;;7.02;100.00
27334;BME280;14817;57.104;-2.094;2024-03-07T09:25:16;101453.09;;;7.04;100.00
27334;BME280;14817;57.104;-2.094;2024-03-07T09:27:46;101461.28;;;7.01;100.00
27334;BME280;14817;57.104;-2.094;2024-03-07T09:30:13;101455.94;;;7.01;100.00
27334;BME280;14817;57.104;-2.094;2024-03-07T09:32:42;101460.34;;;7.02;100.00
27334;BME280;14817;57.104;-2.094;2024-03-07T09:35:10;101458.63;;;7.01;100.00
27334;BME280;14817;57.104;-2.094;2024-03-07T09:37:42;101457.88;;;6.99;100.00
27334;BME280;14817;57.104;-2.094;2024-03-07T09:40:11;101448.63;;;7.05;100.00
27334;BME280;14817;57.104;-2.094;2024-03-07T09:42:47;101456.69;;;7.03;100.00
27334;BME280;14817;57.104;-2.094;2024-03-07T09:45:23;101457.78;;;7.01;100.00
27334;BME280;14817;57.104;-2.094;2024-03-07T09:47:55;101454.25;;;7.00;100.00
27334;BME280;14817;57.104;-2.094;2024-03-07T09:50:22;101458.28;;;7.06;100.00
27334;BME280;14817;57.104;-2.094;2024-03-07T09:52:52;101459.34;;;7.16;100.00
27334;BME280;14817;57.104;-2.094;2024-03-07T09:55:22;101455.00;;;7.15;100.00
27334;BME280;14817;57.104;-2.094;2024-03-07T09:57:53;101457.97;;;7.23;100.00
27334;BME280;14817;57.104;-2.094;2024-03-07T10:00:23;101459.78;;;7.23;100.00
27334;BME280;14817;57.104;-2.094;2024-03-07T10:02:59;101460.09;;;7.18;100.00
27334;BME280;14817;57.104;-2.094;2024-03-07T10:05:30;101453.59;;;7.22;100.00
27334;BME280;14817;57.104;-2.094;2024-03-07T10:07:58;101455.94;;;7.27;100.00
27334;BME280;14817;57.104;-2.094;2024-03-07T10:10:25;101455.44;;;7.22;100.00
27334;BME280;14817;57.104;-2.094;2024-03-07T10:12:53;101452.22;;;7.16;100.00
27334;BME280;14817;57.104;-2.094;2024-03-07T10:15:20;101452.44;;;7.26;100.00
27334;BME280;14817;57.104;-2.094;2024-03-07T10:17:48;101445.94;;;7.18;100.00
27334;BME280;14817;57.104;-2.094;2024-03-07T10:20:18;101459.16;;;7.19;100.00
27334;BME280;14817;57.104;-2.094;2024-03-07T10:22:49;101460.84;;;7.20;100.00
27334;BME280;14817;57.104;-2.094;2024-03-07T10:25:17;101460.09;;;7.31;100.00
27334;BME280;14817;57.104;-2.094;2024-03-07T10:27:46;101449.66;;;7.28;100.00
27334;BME280;14817;57.104;-2.094;2024-03-07T10:30:16;101450.19;;;7.33;100.00
27334;BME280;14817;57.104;-2.094;2024-03-07T10:32:57;101448.03;;;7.38;100.00
27334;BME280;14817;57.104;-2.094;2024-03-07T10:35:28;101441.75;;;7.39;100.00
27334;BME280;14817;57.104;-2.094;2024-03-07T10:37:56;101454.97;;;7.53;100.00
27334;BME280;14817;57.104;-2.094;2024-03-07T10:40:28;101445.34;;;7.51;100.00
27334;BME280;14817;57.104;-2.094;2024-03-07T10:42:57;101446.19;;;7.64;100.00
27334;BME280;14817;57.104;-2.094;2024-03-07T10:45:28;101441.06;;;7.61;100.00
27334;BME280;14817;57.104;-2.094;2024-03-07T10:47:56;101446.81;;;7.68;100.00
27334;BME280;14817;57.104;-2.094;2024-03-07T11:01:39;101444.56;;;7.62;100.00
27334;BME280;14817;57.104;-2.094;2024-03-07T11:04:07;101447.56;;;7.57;100.00
27334;BME280;14817;57.104;-2.094;2024-03-07T11:06:34;101452.16;;;7.55;100.00
27334;BME280;14817;57.104;-2.094;2024-03-07T11:09:03;101450.13;;;7.59;100.00
27334;BME280;14817;57.104;-2.094;2024-03-07T11:11:38;101446.28;;;7.63;100.00
27334;BME280;14817;57.104;-2.094;2024-03-07T11:14:08;101444.47;;;7.63;100.00
27334;BME280;14817;57.104;-2.094;2024-03-07T11:16:39;101446.03;;;7.78;100.00
27334;BME280;14817;57.104;-2.094;2024-03-07T11:19:20;101440.44;;;7.94;100.00
27334;BME280;14817;57.104;-2.094;2024-03-07T11:21:52;101434.88;;;7.97;100.00
27334;BME280;14817;57.104;-2.094;2024-03-07T11:24:23;101439.31;;;8.10;100.00
27334;BME280;14817;57.104;-2.094;2024-03-07T11:27:03;101433.31;;;8.06;100.00
27334;BME280;14817;57.104;-2.094;2024-03-07T11:29:47;101434.06;;;8.08;100.00
27334;BME280;14817;57.104;-2.094;2024-03-07T11:32:15;101430.66;;;8.06;100.00
27334;BME280;14817;57.104;-2.094;2024-03-07T11:34:44;101404.03;;;7.93;100.00
27334;BME280;14817;57.104;-2.094;2024-03-07T11:37:37;101398.19;;;8.12;100.00
27334;BME280;14817;57.104;-2.094;2024-03-07T11:40:08;101392.19;;;7.97;100.00
27334;BME280;14817;57.104;-2.094;2024-03-07T11:42:35;101395.09;;;7.94;100.00
27334;BME280;14817;57.104;-2.094;2024-03-07T11:45:03;101387.38;;;8.03;100.00
27334;BME280;14817;57.104;-2.094;2024-03-07T11:47:37;101396.56;;;7.98;100.00
27334;BME280;14817;57.104;-2.094;2024-03-07T11:50:08;101387.59;;;8.00;100.00
27334;BME280;14817;57.104;-2.094;2024-03-07T11:52:39;101390.53;;;8.08;100.00
27334;BME280;14817;57.104;-2.094;2024-03-07T11:55:11;101381.28;;;8.25;100.00
27334;BME280;14817;57.104;-2.094;2024-03-07T11:57:38;101392.28;;;8.20;100.00
27334;BME280;14817;57.104;-2.094;2024-03-07T12:00:05;101393.25;;;8.19;100.00
27334;BME280;14817;57.104;-2.094;2024-03-07T12:02:45;101396.44;;;8.24;100.00
27334;BME280;14817;57.104;-2.094;2024-03-07T12:05:12;101393.78;;;8.24;100.00
27334;BME280;14817;57.104;-2.094;2024-03-07T12:07:43;101396.66;;;8.21;100.00
27334;BME280;14817;57.104;-2.094;2024-03-07T12:10:10;101401.13;;;8.21;100.00
27334;BME280;14817;57.104;-2.094;2024-03-07T12:12:37;101410.97;;;8.20;100.00
27334;BME280;14817;57.104;-2.094;2024-03-07T12:15:08;101405.63;;;8.20;100.00
27334;BME280;14817;57.104;-2.094;2024-03-07T12:17:48;101410.34;;;8.16;100.00
27334;BME280;14817;57.104;-2.094;2024-03-07T12:20:17;101411.78;;;8.09;100.00
27334;BME280;14817;57.104;-2.094;2024-03-07T12:22:59;101409.59;;;8.14;100.00
27334;BME280;14817;57.104;-2.094;2024-03-07T12:25:29;101409.75;;;8.13;100.00
27334;BME280;14817;57.104;-2.094;2024-03-07T12:28:08;101402.22;;;8.18;100.00
27334;BME280;14817;57.104;-2.094;2024-03-07T12:30:48;101401.75;;;8.13;100.00
27334;BME280;14817;57.104;-2.094;2024-03-07T12:33:19;101392.84;;;8.12;100.00
27334;BME280;14817;57.104;-2.094;2024-03-07T12:35:47;101391.72;;;8.04;100.00
27334;BME280;14817;57.104;-2.094;2024-03-07T12:38:17;101384.47;;;8.06;100.00
27334;BME280;14817;57.104;-2.094;2024-03-07T12:40:45;101390.25;;;8.00;100.00
27334;BME280;14817;57.104;-2.094;2024-03-07T12:45:48;101391.91;;;7.89;100.00
27334;BME280;14817;57.104;-2.094;2024-03-07T12:48:19;101384.19;;;7.97;100.00
27334;BME280;14817;57.104;-2.094;2024-03-07T12:50:49;101386.69;;;8.12;100.00
27334;BME280;14817;57.104;-2.094;2024-03-07T12:53:25;101382.34;;;8.22;100.00
27334;BME280;14817;57.104;-2.094;2024-03-07T12:55:52;101390.31;;;8.11;100.00
27334;BME280;14817;57.104;-2.094;2024-03-07T12:58:20;101390.53;;;8.08;100.00
27334;BME280;14817;57.104;-2.094;2024-03-07T13:00:54;101384.03;;;8.23;100.00
27334;BME280;14817;57.104;-2.094;2024-03-07T13:03:25;101396.41;;;8.13;100.00
27334;BME280;14817;57.104;-2.094;2024-03-07T13:05:58;101395.81;;;8.21;100.00